sensor_id;sensor_type;location;lat;lon;timestamp;pressure;altitude;pressure_sealevel;temperature;humidity
79150;BME280;68563;45.644;13.782;2024-03-07T00:02:10;101038.94;;;11.55;56.68
79150;BME280;68563;45.644;13.782;2024-03-07T00:04:35;101034.69;;;11.51;56.89
79150;BME280;68563;45.644;13.782;2024-03-07T00:07:05;101051.06;;;11.55;56.27
79150;BME280;68563;45.644;13.782;2024-03-07T00:09:31;101043.31;;;11.52;56.39
79150;BME280;68563;45.644;13.782;2024-03-07T00:11:57;101034.69;;;11.51;56.29
79150;BME280;68563;45.644;13.782;2024-03-07T00:14:23;101047.69;;;11.49;56.22
79150;BME280;68563;45.644;13.782;2024-03-07T00:16:52;101040.75;;;11.50;56.42
79150;BME280;68563;45.644;13.782;2024-03-07T00:19:18;101043.34;;;11.50;56.56
79150;BME280;68563;45.644;13.782;2024-03-07T00:21:43;101032.94;;;11.53;56.33
79150;BME280;68563;45.644;13.782;2024-03-07T00:24:09;101031.19;;;11.54;55.64
79150;BME280;68563;45.644;13.782;2024-03-07T00:26:34;101033.81;;;11.49;56.19
79150;BME280;68563;45.644;13.782;2024-03-07T00:28:59;101040.78;;;11.47;56.12
79150;BME280;68563;45.644;13.782;2024-03-07T00:31:25;101046.78;;;11.49;55.73
79150;BME280;68563;45.644;13.782;2024-03-07T00:33:51;101044.25;;;11.44;55.62
79150;BME280;68563;45.644;13.782;2024-03-07T00:36:17;101048.56;;;11.45;55.66
79150;BME280;68563;45.644;13.782;2024-03-07T00:38:42;101038.22;;;11.44;55.88
79150;BME280;68563;45.644;13.782;2024-03-07T00:41:07;101041.66;;;11.46;55.68
79150;BME280;68563;45.644;13.782;2024-03-07T00:43:33;101044.28;;;11.43;55.31
79150;BME280;68563;45.644;13.782;2024-03-07T00:45:58;101039.94;;;11.45;55.19
79150;BME280;68563;45.644;13.782;2024-03-07T00:48:23;101033.94;;;11.40;55.78
79150;BME280;68563;45.644;13.782;2024-03-07T00:50:50;101028.75;;;11.40;56.05
79150;BME280;68563;45.644;13.782;2024-03-07T00:53:15;101033.13;;;11.34;55.82
79150;BME280;68563;45.644;13.782;2024-03-07T00:55:41;101028.00;;;11.28;55.96
79150;BME280;68563;45.644;13.782;2024-03-07T00:58:06;101021.06;;;11.33;55.66
79150;BME280;68563;45.644;13.782;2024-03-07T01:00:31;101021.84;;;11.37;55.37
79150;BME280;68563;45.644;13.782;2024-03-07T01:02:57;101020.16;;;11.34;55.26
79150;BME280;68563;45.644;13.782;2024-03-07T01:05:22;101034.00;;;11.32;55.40
79150;BME280;68563;45.644;13.782;2024-03-07T01:07:47;101028.81;;;11.35;55.39
79150;BME280;68563;45.644;13.782;2024-03-07T01:10:14;101034.81;;;11.37;54.97
79150;BME280;68563;45.644;13.782;2024-03-07T01:12:40;101018.44;;;11.35;54.93
79150;BME280;68563;45.644;13.782;2024-03-07T01:15:06;101022.81;;;11.28;54.96
79150;BME280;68563;45.644;13.782;2024-03-07T01:17:32;101024.50;;;11.31;54.96
79150;BME280;68563;45.644;13.782;2024-03-07T01:19:58;101027.13;;;11.29;55.01
79150;BME280;68563;45.644;13.782;2024-03-07T01:22:24;101023.69;;;11.27;55.06
79150;BME280;68563;45.644;13.782;2024-03-07T01:24:49;101017.63;;;11.28;54.80
79150;BME280;68563;45.644;13.782;2024-03-07T01:27:16;101006.44;;;11.23;55.19
79150;BME280;68563;45.644;13.782;2024-03-07T01:29:41;101005.59;;;11.21;55.41
79150;BME280;68563;45.644;13.782;2024-03-07T01:32:08;101006.44;;;11.26;54.95
79150;BME280;68563;45.644;13.782;2024-03-07T01:34:33;100993.44;;;11.28;55.27
79150;BME280;68563;45.644;13.782;2024-03-07T01:36:58;101001.28;;;11.20;54.86
79150;BME280;68563;45.644;13.782;2024-03-07T01:39:24;101001.31;;;11.17;55.22
79150;BME280;68563;45.644;13.782;2024-03-07T01:41:49;100995.28;;;11.18;55.15
79150;BME280;68563;45.644;13.782;2024-03-07T01:44:15;100987.56;;;11.12;55.33
79150;BME280;68563;45.644;13.782;2024-03-07T01:46:40;100989.31;;;11.10;55.48
79150;BME280;68563;45.644;13.782;2024-03-07T01:49:09;100988.47;;;11.06;55.57
79150;BME280;68563;45.644;13.782;2024-03-07T01:51:36;100979.94;;;10.96;55.91
79150;BME280;68563;45.644;13.782;2024-03-07T01:54:03;100991.09;;;11.01;55.81
79150;BME280;68563;45.644;13.782;2024-03-07T01:56:29;100993.69;;;11.05;55.35
79150;BME280;68563;45.644;13.782;2024-03-07T01:58:55;100985.91;;;11.03;55.50
79150;BME280;68563;45.644;13.782;2024-03-07T02:01:22;100989.34;;;11.05;55.85
79150;BME280;68563;45.644;13.782;2024-03-07T02:03:48;100986.72;;;11.07;55.88
79150;BME280;68563;45.644;13.782;2024-03-07T02:06:13;100990.22;;;11.06;55.68
79150;BME280;68563;45.644;13.782;2024-03-07T02:08:39;100993.56;;;11.14;55.49
79150;BME280;68563;45.644;13.782;2024-03-07T02:11:04;100989.28;;;11.11;55.43
79150;BME280;68563;45.644;13.782;2024-03-07T02:13:30;100988.47;;;11.09;55.28
79150;BME280;68563;45.644;13.782;2024-03-07T02:15:57;100989.31;;;11.07;54.92
79150;BME280;68563;45.644;13.782;2024-03-07T02:18:22;100986.72;;;11.07;54.77
79150;BME280;68563;45.644;13.782;2024-03-07T02:20:49;100986.72;;;11.07;55.04
79150;BME280;68563;45.644;13.782;2024-03-07T02:23:14;100986.72;;;11.07;55.07
79150;BME280;68563;45.644;13.782;2024-03-07T02:25:40;100988.44;;;11.08;55.07
79150;BME280;68563;45.644;13.782;2024-03-07T02:28:06;100983.25;;;11.08;55.05
79150;BME280;68563;45.644;13.782;2024-03-07T02:30:31;100992.75;;;11.09;54.94
79150;BME280;68563;45.644;13.782;2024-03-07T02:33:00;100991.03;;;11.11;54.81
79150;BME280;68563;45.644;13.782;2024-03-07T02:35:35;100991.00;;;11.12;54.54
79150;BME280;68563;45.644;13.782;2024-03-07T02:38:04;100988.44;;;11.08;54.78
79150;BME280;68563;45.644;13.782;2024-03-07T02:40:30;101005.72;;;11.09;54.33
79150;BME280;68563;45.644;13.782;2024-03-07T02:42:56;100993.63;;;11.08;54.01
79150;BME280;68563;45.644;13.782;2024-03-07T02:45:22;101000.53;;;11.09;53.90
79150;BME280;68563;45.644;13.782;2024-03-07T02:47:48;100997.06;;;11.10;53.67
79150;BME280;68563;45.644;13.782;2024-03-07T02:50:13;100996.28;;;11.01;53.81
79150;BME280;68563;45.644;13.782;2024-03-07T02:52:40;100999.72;;;11.04;54.02
79150;BME280;68563;45.644;13.782;2024-03-07T02:55:06;100995.41;;;11.06;53.95
79150;BME280;68563;45.644;13.782;2024-03-07T02:57:35;100993.75;;;10.98;54.12
79150;BME280;68563;45.644;13.782;2024-03-07T03:00:01;100997.16;;;11.00;54.55
79150;BME280;68563;45.644;13.782;2024-03-07T03:02:26;100999.78;;;10.97;54.59
79150;BME280;68563;45.644;13.782;2024-03-07T03:04:51;100998.94;;;10.98;54.90
79150;BME280;68563;45.644;13.782;2024-03-07T03:07:17;101004.94;;;11.02;54.38
79150;BME280;68563;45.644;13.782;2024-03-07T03:09:42;101004.06;;;11.01;54.20
79150;BME280;68563;45.644;13.782;2024-03-07T03:12:11;101004.03;;;11.05;53.94
79150;BME280;68563;45.644;13.782;2024-03-07T03:14:37;101001.41;;;11.09;53.12
79150;BME280;68563;45.644;13.782;2024-03-07T03:17:03;101006.59;;;11.09;53.31
79150;BME280;68563;45.644;13.782;2024-03-07T03:19:28;101007.44;;;11.10;53.66
79150;BME280;68563;45.644;13.782;2024-03-07T03:21:54;101004.00;;;11.08;53.79
79150;BME280;68563;45.644;13.782;2024-03-07T03:24:21;101002.28;;;11.07;53.21
79150;BME280;68563;45.644;13.782;2024-03-07T03:26:47;101010.94;;;11.06;53.56
79150;BME280;68563;45.644;13.782;2024-03-07T03:29:12;101005.81;;;10.99;53.15
79150;BME280;68563;45.644;13.782;2024-03-07T03:31:39;101003.22;;;11.01;52.90
79150;BME280;68563;45.644;13.782;2024-03-07T03:34:05;101007.47;;;11.07;52.81
79150;BME280;68563;45.644;13.782;2024-03-07T03:36:30;101018.72;;;11.06;52.57
79150;BME280;68563;45.644;13.782;2024-03-07T03:38:56;101004.09;;;11.00;52.39
79150;BME280;68563;45.644;13.782;2024-03-07T03:41:22;101005.75;;;11.04;52.20
79150;BME280;68563;45.644;13.782;2024-03-07T03:43:48;101002.31;;;11.04;52.53
79150;BME280;68563;45.644;13.782;2024-03-07T03:46:13;101002.34;;;11.02;51.81
79150;BME280;68563;45.644;13.782;2024-03-07T03:48:39;101012.72;;;11.00;52.38
79150;BME280;68563;45.644;13.782;2024-03-07T03:51:09;101006.69;;;10.98;52.27
79150;BME280;68563;45.644;13.782;2024-03-07T03:53:35;101003.22;;;10.99;51.66
79150;BME280;68563;45.644;13.782;2024-03-07T03:56:02;101020.47;;;11.00;51.75
79150;BME280;68563;45.644;13.782;2024-03-07T03:58:30;101022.19;;;11.01;51.50
79150;BME280;68563;45.644;13.782;2024-03-07T04:00:56;101028.19;;;11.08;50.95
79150;BME280;68563;45.644;13.782;2024-03-07T04:03:23;101015.31;;;11.02;51.05
79150;BME280;68563;45.644;13.782;2024-03-07T04:05:49;101011.88;;;10.97;51.15
79150;BME280;68563;45.644;13.782;2024-03-07T04:08:14;101009.31;;;10.95;50.97
79150;BME280;68563;45.644;13.782;2024-03-07T04:10:40;101014.44;;;11.01;51.65
79150;BME280;68563;45.644;13.782;2024-03-07T04:13:05;101013.59;;;11.01;50.80
79150;BME280;68563;45.644;13.782;2024-03-07T04:15:30;101015.31;;;10.99;51.06
79150;BME280;68563;45.644;13.782;2024-03-07T04:17:57;101016.16;;;11.01;51.10
79150;BME280;68563;45.644;13.782;2024-03-07T04:20:23;101016.16;;;11.02;51.09
79150;BME280;68563;45.644;13.782;2024-03-07T04:22:50;101023.00;;;11.07;50.62
79150;BME280;68563;45.644;13.782;2024-03-07T04:25:16;101018.75;;;11.02;50.57
79150;BME280;68563;45.644;13.782;2024-03-07T04:27:41;101019.66;;;10.95;50.37
79150;BME280;68563;45.644;13.782;2024-03-07T04:30:08;101010.22;;;10.91;50.68
79150;BME280;68563;45.644;13.782;2024-03-07T04:32:37;101021.47;;;10.87;51.05
79150;BME280;68563;45.644;13.782;2024-03-07T04:35:04;101016.31;;;10.85;51.31
79150;BME280;68563;45.644;13.782;2024-03-07T04:37:33;101017.97;;;10.90;50.84
79150;BME280;68563;45.644;13.782;2024-03-07T04:40:05;101023.13;;;10.94;50.53
79150;BME280;68563;45.644;13.782;2024-03-07T04:42:41;101023.19;;;10.88;50.32
79150;BME280;68563;45.644;13.782;2024-03-07T04:45:06;101024.06;;;10.85;50.72
79150;BME280;68563;45.644;13.782;2024-03-07T04:47:32;101015.41;;;10.88;50.70
79150;BME280;68563;45.644;13.782;2024-03-07T04:49:57;101018.84;;;10.90;50.85
79150;BME280;68563;45.644;13.782;2024-03-07T04:52:23;101020.59;;;10.91;50.39
79150;BME280;68563;45.644;13.782;2024-03-07T04:54:49;101020.56;;;10.93;50.68
79150;BME280;68563;45.644;13.782;2024-03-07T04:57:15;101022.31;;;10.89;50.56
79150;BME280;68563;45.644;13.782;2024-03-07T04:59:40;101024.91;;;10.89;50.89
79150;BME280;68563;45.644;13.782;2024-03-07T05:02:06;101021.47;;;10.87;50.86
79150;BME280;68563;45.644;13.782;2024-03-07T05:04:32;101029.22;;;10.90;50.61
79150;BME280;68563;45.644;13.782;2024-03-07T05:06:58;101034.44;;;10.85;50.68
79150;BME280;68563;45.644;13.782;2024-03-07T05:09:23;101025.81;;;10.83;50.72
79150;BME280;68563;45.644;13.782;2024-03-07T05:11:51;101032.72;;;10.84;50.88
79150;BME280;68563;45.644;13.782;2024-03-07T05:14:20;101039.63;;;10.84;50.58
79150;BME280;68563;45.644;13.782;2024-03-07T05:16:47;101049.94;;;10.89;49.88
79150;BME280;68563;45.644;13.782;2024-03-07T05:19:33;101049.94;;;10.90;50.17
79150;BME280;68563;45.644;13.782;2024-03-07T05:21:59;101049.13;;;10.87;49.95
79150;BME280;68563;45.644;13.782;2024-03-07T05:24:24;101048.25;;;10.88;49.97
79150;BME280;68563;45.644;13.782;2024-03-07T05:26:50;101050.81;;;10.86;50.05
79150;BME280;68563;45.644;13.782;2024-03-07T05:29:18;101056.84;;;10.90;50.12
79150;BME280;68563;45.644;13.782;2024-03-07T05:31:43;101040.56;;;10.77;49.84
79150;BME280;68563;45.644;13.782;2024-03-07T05:34:13;101051.81;;;10.74;50.40
79150;BME280;68563;45.644;13.782;2024-03-07T05:36:38;101046.63;;;10.71;50.13
79150;BME280;68563;45.644;13.782;2024-03-07T05:39:14;101057.84;;;10.72;50.35
79150;BME280;68563;45.644;13.782;2024-03-07T05:41:41;101067.38;;;10.69;50.24
79150;BME280;68563;45.644;13.782;2024-03-07T05:44:06;101062.19;;;10.66;50.53
79150;BME280;68563;45.644;13.782;2024-03-07T05:46:36;101066.53;;;10.64;50.48
79150;BME280;68563;45.644;13.782;2024-03-07T05:49:06;101068.25;;;10.67;50.28
79150;BME280;68563;45.644;13.782;2024-03-07T05:51:31;101072.56;;;10.66;50.31
79150;BME280;68563;45.644;13.782;2024-03-07T05:53:57;101072.59;;;10.63;50.51
79150;BME280;68563;45.644;13.782;2024-03-07T05:56:22;101075.16;;;10.66;50.74
79150;BME280;68563;45.644;13.782;2024-03-07T05:58:48;101076.03;;;10.67;50.55
79150;BME280;68563;45.644;13.782;2024-03-07T06:01:13;101079.44;;;10.69;50.80
79150;BME280;68563;45.644;13.782;2024-03-07T06:03:39;101080.31;;;10.71;50.44
79150;BME280;68563;45.644;13.782;2024-03-07T06:06:05;101084.63;;;10.72;50.42
79150;BME280;68563;45.644;13.782;2024-03-07T06:08:33;101088.09;;;10.71;49.44
79150;BME280;68563;45.644;13.782;2024-03-07T06:10:58;101083.75;;;10.75;49.48
79150;BME280;68563;45.644;13.782;2024-03-07T06:13:24;101092.34;;;10.80;52.21
79150;BME280;68563;45.644;13.782;2024-03-07T06:15:50;101095.53;;;11.13;58.91
79150;BME280;68563;45.644;13.782;2024-03-07T06:18:15;101087.56;;;11.36;54.45
79150;BME280;68563;45.644;13.782;2024-03-07T06:20:41;101096.72;;;11.73;55.07
79150;BME280;68563;45.644;13.782;2024-03-07T06:23:07;101097.47;;;11.82;50.55
79150;BME280;68563;45.644;13.782;2024-03-07T06:25:33;101098.44;;;11.72;47.75
79150;BME280;68563;45.644;13.782;2024-03-07T06:28:03;101096.84;;;11.59;47.24
79150;BME280;68563;45.644;13.782;2024-03-07T06:30:40;101102.19;;;11.42;47.62
79150;BME280;68563;45.644;13.782;2024-03-07T06:33:06;101102.31;;;11.29;47.42
79150;BME280;68563;45.644;13.782;2024-03-07T06:35:32;101114.47;;;11.23;47.68
79150;BME280;68563;45.644;13.782;2024-03-07T06:37:57;101111.94;;;11.15;48.15
79150;BME280;68563;45.644;13.782;2024-03-07T06:40:22;101114.47;;;11.21;48.25
79150;BME280;68563;45.644;13.782;2024-03-07T06:42:48;101111.00;;;11.22;47.45
79150;BME280;68563;45.644;13.782;2024-03-07T06:45:14;101121.19;;;11.44;47.27
79150;BME280;68563;45.644;13.782;2024-03-07T06:47:40;101114.09;;;11.64;46.98
79150;BME280;68563;45.644;13.782;2024-03-07T06:50:06;101112.22;;;11.76;46.46
79150;BME280;68563;45.644;13.782;2024-03-07T06:52:34;101109.31;;;12.07;48.79
79150;BME280;68563;45.644;13.782;2024-03-07T06:55:03;101116.81;;;12.33;49.31
79150;BME280;68563;45.644;13.782;2024-03-07T06:57:29;101117.66;;;12.34;46.78
79150;BME280;68563;45.644;13.782;2024-03-07T06:59:55;101111.56;;;12.35;46.39
79150;BME280;68563;45.644;13.782;2024-03-07T07:02:20;101113.22;;;12.42;45.85
79150;BME280;68563;45.644;13.782;2024-03-07T07:04:46;101110.56;;;12.45;46.27
79150;BME280;68563;45.644;13.782;2024-03-07T07:07:13;101091.53;;;12.44;45.97
79150;BME280;68563;45.644;13.782;2024-03-07T07:09:40;101109.59;;;12.52;45.20
79150;BME280;68563;45.644;13.782;2024-03-07T07:12:06;101110.41;;;12.56;45.54
79150;BME280;68563;45.644;13.782;2024-03-07T07:14:31;101117.38;;;12.54;45.37
79150;BME280;68563;45.644;13.782;2024-03-07T07:16:57;101111.34;;;12.52;45.67
79150;BME280;68563;45.644;13.782;2024-03-07T07:19:24;101107.72;;;12.64;45.10
79150;BME280;68563;45.644;13.782;2024-03-07T07:21:50;101118.06;;;12.67;45.25
79150;BME280;68563;45.644;13.782;2024-03-07T07:24:19;101114.59;;;12.68;45.46
79150;BME280;68563;45.644;13.782;2024-03-07T07:26:44;101117.19;;;12.68;45.38
79150;BME280;68563;45.644;13.782;2024-03-07T07:29:10;101114.47;;;12.77;44.63
79150;BME280;68563;45.644;13.782;2024-03-07T07:31:36;101117.88;;;12.81;45.00
79150;BME280;68563;45.644;13.782;2024-03-07T07:34:01;101116.19;;;12.78;44.98
79150;BME280;68563;45.644;13.782;2024-03-07T07:36:29;101130.88;;;12.81;45.04
79150;BME280;68563;45.644;13.782;2024-03-07T07:38:55;101124.75;;;12.83;44.46
79150;BME280;68563;45.644;13.782;2024-03-07T07:41:23;101129.97;;;12.83;44.54
79150;BME280;68563;45.644;13.782;2024-03-07T07:43:48;101125.69;;;12.77;44.50
79150;BME280;68563;45.644;13.782;2024-03-07T07:46:14;101124.78;;;12.80;45.32
79150;BME280;68563;45.644;13.782;2024-03-07T07:48:41;101128.13;;;12.88;45.34
79150;BME280;68563;45.644;13.782;2024-03-07T07:51:07;101118.59;;;12.90;44.79
79150;BME280;68563;45.644;13.782;2024-03-07T07:53:32;101127.03;;;13.05;44.53
79150;BME280;68563;45.644;13.782;2024-03-07T07:55:58;101133.78;;;13.15;44.51
79150;BME280;68563;45.644;13.782;2024-03-07T07:58:23;101126.00;;;13.15;43.82
79150;BME280;68563;45.644;13.782;2024-03-07T08:00:49;101125.00;;;13.24;44.46
79150;BME280;68563;45.644;13.782;2024-03-07T08:03:14;101134.63;;;13.17;44.75
79150;BME280;68563;45.644;13.782;2024-03-07T08:05:43;101123.28;;;13.23;43.60
79150;BME280;68563;45.644;13.782;2024-03-07T08:08:10;101121.56;;;13.22;44.14
79150;BME280;68563;45.644;13.782;2024-03-07T08:10:40;101120.59;;;13.28;44.14
79150;BME280;68563;45.644;13.782;2024-03-07T08:13:11;101139.63;;;13.30;43.66
79150;BME280;68563;45.644;13.782;2024-03-07T08:15:38;101123.13;;;13.31;43.13
79150;BME280;68563;45.644;13.782;2024-03-07T08:18:04;101125.69;;;13.34;43.23
79150;BME280;68563;45.644;13.782;2024-03-07T08:20:36;101142.50;;;13.13;42.04
79150;BME280;68563;45.644;13.782;2024-03-07T08:23:01;101124.09;;;13.27;42.03
79150;BME280;68563;45.644;13.782;2024-03-07T08:25:28;101126.81;;;13.17;41.46
79150;BME280;68563;45.644;13.782;2024-03-07T08:27:56;101118.13;;;13.20;42.27
79150;BME280;68563;45.644;13.782;2024-03-07T08:30:23;101126.63;;;13.30;42.17
79150;BME280;68563;45.644;13.782;2024-03-07T08:32:53;101129.13;;;13.36;41.94
79150;BME280;68563;45.644;13.782;2024-03-07T08:35:19;101120.44;;;13.37;41.74
79150;BME280;68563;45.644;13.782;2024-03-07T08:37:47;101129.06;;;13.42;41.26
79150;BME280;68563;45.644;13.782;2024-03-07T08:40:25;101127.44;;;13.33;41.25
79150;BME280;68563;45.644;13.782;2024-03-07T08:42:53;101130.09;;;13.30;41.34
79150;BME280;68563;45.644;13.782;2024-03-07T08:45:21;101140.53;;;13.27;40.82
79150;BME280;68563;45.644;13.782;2024-03-07T08:47:49;101123.50;;;13.11;41.08
79150;BME280;68563;45.644;13.782;2024-03-07T08:50:17;101126.16;;;13.06;40.43
79150;BME280;68563;45.644;13.782;2024-03-07T08:52:47;101131.41;;;13.01;40.39
79150;BME280;68563;45.644;13.782;2024-03-07T08:55:17;101121.84;;;13.05;40.08
79150;BME280;68563;45.644;13.782;2024-03-07T08:57:44;101136.56;;;13.04;39.94
79150;BME280;68563;45.644;13.782;2024-03-07T09:00:12;101122.16;;;12.83;40.66
79150;BME280;68563;45.644;13.782;2024-03-07T09:02:48;101110.00;;;12.84;40.73
79150;BME280;68563;45.644;13.782;2024-03-07T09:05:16;101121.22;;;12.87;40.25
79150;BME280;68563;45.644;13.782;2024-03-07T09:07:41;101115.28;;;12.81;39.86
79150;BME280;68563;45.644;13.782;2024-03-07T09:10:07;101112.72;;;12.76;40.40
79150;BME280;68563;45.644;13.782;2024-03-07T09:12:32;101113.69;;;12.72;40.60
79150;BME280;68563;45.644;13.782;2024-03-07T09:14:58;101115.38;;;12.73;41.00
79150;BME280;68563;45.644;13.782;2024-03-07T09:17:23;101100.69;;;12.70;41.22
79150;BME280;68563;45.644;13.782;2024-03-07T09:19:49;101116.19;;;12.76;41.10
79150;BME280;68563;45.644;13.782;2024-03-07T09:22:15;101129.28;;;12.70;40.75
79150;BME280;68563;45.644;13.782;2024-03-07T09:24:40;101121.69;;;12.56;40.98
79150;BME280;68563;45.644;13.782;2024-03-07T09:27:06;101135.53;;;12.58;41.15
79150;BME280;68563;45.644;13.782;2024-03-07T09:29:32;101125.19;;;12.52;41.27
79150;BME280;68563;45.644;13.782;2024-03-07T09:31:57;101120.84;;;12.54;41.87
79150;BME280;68563;45.644;13.782;2024-03-07T09:34:24;101139.00;;;12.57;41.91
79150;BME280;68563;45.644;13.782;2024-03-07T09:36:51;101130.38;;;12.52;41.30
79150;BME280;68563;45.644;13.782;2024-03-07T09:39:17;101120.03;;;12.51;41.16
79150;BME280;68563;45.644;13.782;2024-03-07T09:41:44;101125.13;;;12.58;41.49
79150;BME280;68563;45.644;13.782;2024-03-07T09:44:10;101116.50;;;12.56;41.01
79150;BME280;68563;45.644;13.782;2024-03-07T09:46:38;101135.53;;;12.57;41.36
79150;BME280;68563;45.644;13.782;2024-03-07T09:49:04;101122.59;;;12.54;41.33
79150;BME280;68563;45.644;13.782;2024-03-07T09:51:31;101121.72;;;12.55;41.39
79150;BME280;68563;45.644;13.782;2024-03-07T09:53:58;101119.13;;;12.55;41.18
79150;BME280;68563;45.644;13.782;2024-03-07T09:56:28;101112.16;;;12.55;41.29
79150;BME280;68563;45.644;13.782;2024-03-07T09:59:13;101114.75;;;12.55;41.33
79150;BME280;68563;45.644;13.782;2024-03-07T10:01:41;101115.63;;;12.57;41.40
79150;BME280;68563;45.644;13.782;2024-03-07T10:04:12;101129.44;;;12.58;41.04
79150;BME280;68563;45.644;13.782;2024-03-07T10:06:40;101119.03;;;12.59;41.21
79150;BME280;68563;45.644;13.782;2024-03-07T10:09:06;101128.53;;;12.60;40.85
79150;BME280;68563;45.644;13.782;2024-03-07T10:11:33;101128.53;;;12.62;41.73
79150;BME280;68563;45.644;13.782;2024-03-07T10:13:59;101129.41;;;12.61;40.16
79150;BME280;68563;45.644;13.782;2024-03-07T10:16:24;101136.34;;;12.60;40.64
79150;BME280;68563;45.644;13.782;2024-03-07T10:18:50;101123.34;;;12.60;40.41
79150;BME280;68563;45.644;13.782;2024-03-07T10:21:21;101128.53;;;12.60;40.93
79150;BME280;68563;45.644;13.782;2024-03-07T10:23:49;101128.53;;;12.60;40.25
79150;BME280;68563;45.644;13.782;2024-03-07T10:26:16;101123.31;;;12.64;40.76
79150;BME280;68563;45.644;13.782;2024-03-07T10:28:42;101125.03;;;12.65;40.36
79150;BME280;68563;45.644;13.782;2024-03-07T10:31:08;101114.63;;;12.66;40.48
79150;BME280;68563;45.644;13.782;2024-03-07T10:33:37;101118.88;;;12.70;40.41
79150;BME280;68563;45.644;13.782;2024-03-07T10:36:02;101132.69;;;12.74;40.07
79150;BME280;68563;45.644;13.782;2024-03-07T10:38:28;101117.16;;;12.71;39.53
79150;BME280;68563;45.644;13.782;2024-03-07T10:40:55;101125.84;;;12.68;39.46
79150;BME280;68563;45.644;13.782;2024-03-07T10:43:21;101131.94;;;12.67;39.22
79150;BME280;68563;45.644;13.782;2024-03-07T10:45:49;101112.84;;;12.67;39.45
79150;BME280;68563;45.644;13.782;2024-03-07T10:48:18;101112.84;;;12.70;39.37
79150;BME280;68563;45.644;13.782;2024-03-07T10:56:24;101124.06;;;12.70;38.38
79150;BME280;68563;45.644;13.782;2024-03-07T11:01:30;101103.28;;;12.70;37.59
79150;BME280;68563;45.644;13.782;2024-03-07T11:03:59;101105.03;;;12.70;37.56
79150;BME280;68563;45.644;13.782;2024-03-07T11:06:25;101109.28;;;12.74;35.96
79150;BME280;68563;45.644;13.782;2024-03-07T11:08:52;101091.09;;;12.75;37.05
79150;BME280;68563;45.644;13.782;2024-03-07T11:11:18;101094.50;;;12.77;37.88
79150;BME280;68563;45.644;13.782;2024-03-07T11:13:44;101099.63;;;12.84;37.91
79150;BME280;68563;45.644;13.782;2024-03-07T11:16:11;101094.28;;;12.93;36.95
79150;BME280;68563;45.644;13.782;2024-03-07T11:18:40;101088.13;;;12.97;37.60
79150;BME280;68563;45.644;13.782;2024-03-07T11:21:05;101098.53;;;12.99;37.91
79150;BME280;68563;45.644;13.782;2024-03-07T11:23:33;101081.22;;;12.98;38.32
79150;BME280;68563;45.644;13.782;2024-03-07T11:26:10;101079.50;;;12.97;38.86
79150;BME280;68563;45.644;13.782;2024-03-07T11:28:38;101069.88;;;13.02;38.88
79150;BME280;68563;45.644;13.782;2024-03-07T11:31:08;101074.19;;;13.03;38.75
79150;BME280;68563;45.644;13.782;2024-03-07T11:33:36;101069.91;;;13.00;37.23
79150;BME280;68563;45.644;13.782;2024-03-07T11:36:02;101075.94;;;13.01;36.87
79150;BME280;68563;45.644;13.782;2024-03-07T11:38:32;101069.88;;;13.03;37.29
79150;BME280;68563;45.644;13.782;2024-03-07T11:41:01;101072.53;;;12.99;37.50
79150;BME280;68563;45.644;13.782;2024-03-07T11:43:27;101065.50;;;13.04;36.84
79150;BME280;68563;45.644;13.782;2024-03-07T11:45:53;101049.88;;;13.07;37.08
79150;BME280;68563;45.644;13.782;2024-03-07T11:48:19;101056.84;;;13.05;36.55
79150;BME280;68563;45.644;13.782;2024-03-07T11:50:45;101047.28;;;13.05;36.48
79150;BME280;68563;45.644;13.782;2024-03-07T11:53:11;101047.25;;;13.08;36.30
79150;BME280;68563;45.644;13.782;2024-03-07T11:55:38;101043.69;;;13.13;37.04
79150;BME280;68563;45.644;13.782;2024-03-07T12:00:43;101051.31;;;13.23;37.43
79150;BME280;68563;45.644;13.782;2024-03-07T12:03:16;101043.47;;;13.27;37.05
79150;BME280;68563;45.644;13.782;2024-03-07T12:05:51;101033.06;;;13.27;37.60
79150;BME280;68563;45.644;13.782;2024-03-07T12:08:17;101033.81;;;13.32;38.02
79150;BME280;68563;45.644;13.782;2024-03-07T12:10:44;101024.25;;;13.34;37.92
79150;BME280;68563;45.644;13.782;2024-03-07T12:13:11;101031.97;;;13.37;37.23
79150;BME280;68563;45.644;13.782;2024-03-07T12:15:39;101018.16;;;13.35;37.09
79150;BME280;68563;45.644;13.782;2024-03-07T12:18:05;101025.06;;;13.39;37.45
79150;BME280;68563;45.644;13.782;2024-03-07T12:20:38;101011.13;;;13.42;37.43
79150;BME280;68563;45.644;13.782;2024-03-07T12:23:04;101004.25;;;13.39;36.96
79150;BME280;68563;45.644;13.782;2024-03-07T12:25:35;101007.59;;;13.44;37.47
79150;BME280;68563;45.644;13.782;2024-03-07T12:28:11;101021.44;;;13.46;37.38
79150;BME280;68563;45.644;13.782;2024-03-07T12:30:56;101027.47;;;13.48;36.95
79150;BME280;68563;45.644;13.782;2024-03-07T12:33:23;101025.72;;;13.49;40.93
79150;BME280;68563;45.644;13.782;2024-03-07T12:35:52;101016.28;;;13.43;44.86
79150;BME280;68563;45.644;13.782;2024-03-07T12:38:19;101029.34;;;13.42;46.43
79150;BME280;68563;45.644;13.782;2024-03-07T12:40:45;101021.56;;;13.37;46.61
79150;BME280;68563;45.644;13.782;2024-03-07T12:43:18;101013.88;;;13.31;46.63
79150;BME280;68563;45.644;13.782;2024-03-07T12:45:47;101019.91;;;13.34;46.74
79150;BME280;68563;45.644;13.782;2024-03-07T12:48:13;101010.44;;;13.29;47.44
79150;BME280;68563;45.644;13.782;2024-03-07T12:50:40;101011.38;;;13.28;47.13